Time;durP1;ratioP1;P1;durP2;ratioP2;P2;SDS_P1;SDS_P2;PMS_P1;PMS_P2;Temp;Humidity;BMP_temperature;BMP_pressure;BME280_temperature;BME280_humidity;BME280_pressure;Samples;Min_cycle;Max_cycle;Signal;HPM_P1;HPM_P2
2023/05/09 00:02:47;;;;;;;14.60;11.52;;;15.10;99.90;;;;;;7325337;32;20126;-56
2023/05/09 00:06:50;;;;;;;14.80;11.80;;;15.10;99.90;;;;;;7325791;32;20103;-57
2023/05/09 00:10:52;;;;;;;15.85;12.32;;;15.10;99.90;;;;;;7323643;32;20119;-57
2023/05/09 00:14:55;;;;;;;14.98;13.38;;;15.00;99.90;;;;;;7330014;32;20135;-57
2023/05/09 00:18:57;;;;;;;14.63;12.35;;;15.10;99.90;;;;;;7324296;32;20137;-57
2023/05/09 00:22:59;;;;;;;14.80;12.85;;;15.10;99.90;;;;;;7325876;32;20211;-58
2023/05/09 00:27:01;;;;;;;14.30;12.80;;;15.00;99.90;;;;;;7329894;32;20167;-56
2023/05/09 00:31:03;;;;;;;16.85;14.25;;;15.10;99.90;;;;;;7329124;32;20107;-56
2023/05/09 00:35:05;;;;;;;16.85;13.68;;;14.90;99.90;;;;;;7324984;32;20126;-57
2023/05/09 00:39:07;;;;;;;15.57;13.70;;;15.00;99.90;;;;;;7324616;32;20682;-57
2023/05/09 00:43:09;;;;;;;16.10;14.40;;;14.90;99.90;;;;;;7327582;32;20095;-56
2023/05/09 00:47:11;;;;;;;16.35;14.23;;;14.90;99.90;;;;;;7331869;32;20182;-57
2023/05/09 00:51:13;;;;;;;19.35;14.82;;;14.80;99.90;;;;;;7327950;32;20278;-57
2023/05/09 00:55:15;;;;;;;19.15;15.57;;;14.80;99.90;;;;;;7321930;32;20608;-58
2023/05/09 00:59:17;;;;;;;17.83;15.85;;;14.80;99.90;;;;;;7324017;32;20126;-57
2023/05/09 01:03:19;;;;;;;18.33;15.15;;;14.70;99.90;;;;;;7329904;32;20195;-57
2023/05/09 01:07:59;;;;;;;19.83;17.73;;;14.70;99.90;;;;;;7327094;32;20233;-57
2023/05/09 01:12:30;;;;;;;20.20;16.90;;;14.70;99.90;;;;;;7325130;32;20516;-56
2023/05/09 01:16:40;;;;;;;19.48;16.65;;;14.60;99.90;;;;;;7315494;32;20953;-57
2023/05/09 01:20:46;;;;;;;22.37;17.90;;;14.60;99.90;;;;;;7331900;32;20499;-59
2023/05/09 01:25:20;;;;;;;20.08;17.12;;;14.70;99.90;;;;;;7311023;32;20183;-56
2023/05/09 01:29:43;;;;;;;19.30;17.30;;;14.70;99.90;;;;;;7336916;32;20229;-56
2023/05/09 01:33:50;;;;;;;19.70;16.42;;;14.70;99.90;;;;;;7321684;32;20168;-58
2023/05/09 01:37:54;;;;;;;21.73;17.87;;;14.70;99.90;;;;;;7331877;32;20175;-56
2023/05/09 01:41:59;;;;;;;24.20;19.02;;;14.70;99.90;;;;;;7326274;32;20668;-58
2023/05/09 01:46:05;;;;;;;20.80;17.50;;;14.70;99.90;;;;;;7336457;32;20203;-57
2023/05/09 01:50:10;;;;;;;21.08;18.15;;;14.70;99.90;;;;;;7334655;32;20104;-57
2023/05/09 01:54:14;;;;;;;21.02;17.58;;;14.80;99.90;;;;;;7331180;32;20130;-56
2023/05/09 01:58:17;;;;;;;24.45;18.27;;;14.80;99.90;;;;;;7332052;32;20109;-57
2023/05/09 02:02:19;;;;;;;23.17;18.92;;;14.90;99.90;;;;;;7333788;32;20180;-58
2023/05/09 02:06:23;;;;;;;25.17;19.92;;;14.90;99.90;;;;;;7328305;32;20157;-56
2023/05/09 02:10:27;;;;;;;26.65;20.17;;;14.90;99.90;;;;;;7329785;32;20257;-58
2023/05/09 02:14:30;;;;;;;20.83;18.48;;;15.10;99.90;;;;;;7330142;32;20195;-57
2023/05/09 02:18:33;;;;;;;23.95;19.27;;;15.10;99.90;;;;;;7326972;32;20190;-56
2023/05/09 02:22:35;;;;;;;24.23;20.62;;;15.00;99.90;;;;;;7331970;32;20103;-56
2023/05/09 02:26:38;;;;;;;20.98;18.77;;;15.00;99.90;;;;;;7323881;32;20118;-57
2023/05/09 02:30:43;;;;;;;23.92;19.00;;;15.10;99.90;;;;;;7307034;32;20123;-58
2023/05/09 02:34:45;;;;;;;21.45;19.27;;;15.00;99.90;;;;;;7324906;32;20234;-58
2023/05/09 02:38:47;;;;;;;23.35;19.70;;;15.00;99.90;;;;;;7336604;32;20117;-57
2023/05/09 02:42:49;;;;;;;24.67;20.55;;;15.00;99.90;;;;;;7325536;32;20518;-56
2023/05/09 02:46:51;;;;;;;23.52;20.23;;;15.00;99.90;;;;;;7334616;32;20111;-57
2023/05/09 02:50:52;;;;;;;22.85;20.37;;;15.00;99.90;;;;;;7331252;32;20104;-56
2023/05/09 02:54:54;;;;;;;28.55;23.27;;;15.00;99.90;;;;;;7324526;32;20606;-59
2023/05/09 02:58:56;;;;;;;24.92;20.12;;;15.00;99.90;;;;;;7326603;32;20108;-56
2023/05/09 03:02:58;;;;;;;21.92;19.62;;;15.00;99.90;;;;;;7334553;32;20115;-57
2023/05/09 03:07:00;;;;;;;30.00;20.90;;;15.00;99.90;;;;;;7341279;32;20620;-56
2023/05/09 03:11:02;;;;;;;29.10;21.40;;;15.00;99.90;;;;;;7332743;32;20099;-56
2023/05/09 03:15:07;;;;;;;24.33;20.85;;;15.00;99.90;;;;;;7332663;32;20598;-57
2023/05/09 03:19:09;;;;;;;23.65;19.75;;;15.00;99.90;;;;;;7334825;32;20328;-58
2023/05/09 03:23:11;;;;;;;25.83;21.70;;;15.00;99.90;;;;;;7334598;32;20601;-57
2023/05/09 03:27:12;;;;;;;25.55;20.75;;;15.00;99.90;;;;;;7329316;32;20108;-57
2023/05/09 03:31:15;;;;;;;24.87;21.87;;;15.00;99.90;;;;;;7330313;32;20520;-57
2023/05/09 03:35:17;;;;;;;25.80;22.87;;;15.00;99.90;;;;;;7328178;32;20514;-57
2023/05/09 03:39:18;;;;;;;28.48;23.27;;;15.00;99.90;;;;;;7330698;32;20162;-56
2023/05/09 03:43:20;;;;;;;30.58;22.62;;;15.00;99.90;;;;;;7330328;32;20766;-57
2023/05/09 03:47:22;;;;;;;28.40;22.92;;;15.10;99.90;;;;;;7335551;32;20107;-56
2023/05/09 03:51:24;;;;;;;32.53;24.52;;;15.00;99.90;;;;;;7324582;32;20146;-57
2023/05/09 03:55:26;;;;;;;30.83;24.12;;;14.90;99.90;;;;;;7336021;32;20119;-58
2023/05/09 03:59:28;;;;;;;34.20;25.35;;;14.90;99.90;;;;;;7325337;32;20206;-57
2023/05/09 04:03:30;;;;;;;31.20;24.67;;;14.80;99.90;;;;;;7328274;32;20309;-56
2023/05/09 04:07:32;;;;;;;29.50;24.52;;;14.80;99.90;;;;;;7325366;32;20122;-56
2023/05/09 04:11:34;;;;;;;27.75;23.85;;;14.80;99.90;;;;;;7314044;32;20207;-56
2023/05/09 04:15:36;;;;;;;33.53;25.50;;;14.80;99.90;;;;;;7338218;32;20161;-57
2023/05/09 04:19:37;;;;;;;29.08;23.20;;;14.80;99.90;;;;;;7326341;32;20306;-56
2023/05/09 04:23:39;;;;;;;30.70;23.38;;;14.80;99.90;;;;;;7325320;32;20240;-55
2023/05/09 04:27:41;;;;;;;28.45;23.12;;;14.80;99.90;;;;;;7330049;32;20108;-56
2023/05/09 04:31:42;;;;;;;28.05;23.50;;;14.80;99.90;;;;;;7331944;32;20146;-55
2023/05/09 04:35:44;;;;;;;29.60;22.90;;;14.90;99.90;;;;;;7331086;32;20158;-57
2023/05/09 04:39:46;;;;;;;27.67;22.83;;;14.80;99.90;;;;;;7326097;32;20685;-55
2023/05/09 04:43:48;;;;;;;26.23;23.23;;;14.80;99.90;;;;;;7324756;32;20112;-55
2023/05/09 04:47:50;;;;;;;31.40;23.50;;;14.80;99.90;;;;;;7331211;32;20309;-56
2023/05/09 04:51:51;;;;;;;30.40;22.95;;;14.90;99.90;;;;;;7325898;32;20186;-57
2023/05/09 04:55:53;;;;;;;26.70;21.12;;;14.80;99.90;;;;;;7328010;32;20108;-56
2023/05/09 04:59:55;;;;;;;30.88;22.92;;;14.90;99.90;;;;;;7331846;32;20107;-57
2023/05/09 05:03:57;;;;;;;28.60;22.98;;;14.90;99.90;;;;;;7325701;32;20121;-57
2023/05/09 05:07:58;;;;;;;26.08;22.02;;;14.90;99.90;;;;;;7327941;32;20131;-57
2023/05/09 05:12:00;;;;;;;30.02;23.27;;;14.90;99.90;;;;;;7333987;32;20299;-57
2023/05/09 05:16:05;;;;;;;29.02;22.65;;;15.00;99.90;;;;;;7328978;32;21059;-57
2023/05/09 05:20:09;;;;;;;31.00;23.15;;;14.90;99.90;;;;;;7337171;32;20758;-57
2023/05/09 05:24:11;;;;;;;27.37;22.83;;;14.90;99.90;;;;;;7335736;32;20155;-57
2023/05/09 05:28:12;;;;;;;28.40;22.70;;;15.00;99.90;;;;;;7333883;32;20345;-57
2023/05/09 05:32:14;;;;;;;26.95;21.02;;;15.10;99.90;;;;;;7333865;32;20570;-57
2023/05/09 05:36:16;;;;;;;25.62;20.52;;;15.10;99.90;;;;;;7334507;32;20619;-57
2023/05/09 05:40:18;;;;;;;27.05;21.23;;;15.30;99.90;;;;;;7329346;32;20183;-56
2023/05/09 05:44:19;;;;;;;25.60;20.12;;;15.30;99.90;;;;;;7331049;32;20124;-57
2023/05/09 05:48:22;;;;;;;24.55;19.75;;;15.40;99.90;;;;;;7337420;32;20126;-57
2023/05/09 05:52:23;;;;;;;24.08;20.15;;;15.40;99.90;;;;;;7333797;32;20103;-57
2023/05/09 05:56:25;;;;;;;26.05;20.60;;;15.50;99.90;;;;;;7330946;32;20092;-57
2023/05/09 06:00:27;;;;;;;22.65;19.87;;;15.70;99.90;;;;;;7329582;32;20121;-57
2023/05/09 06:04:29;;;;;;;22.83;19.00;;;15.90;99.90;;;;;;7336837;32;20252;-57
2023/05/09 06:08:30;;;;;;;21.15;17.40;;;16.30;99.90;;;;;;7329668;32;20130;-57
2023/05/09 06:12:32;;;;;;;26.12;19.25;;;16.50;99.90;;;;;;7326842;32;20104;-57
2023/05/09 06:16:34;;;;;;;22.08;17.30;;;16.60;99.90;;;;;;7333436;32;20227;-58
2023/05/09 06:20:36;;;;;;;22.48;18.58;;;16.90;99.90;;;;;;7329219;32;20718;-57
2023/05/09 06:24:38;;;;;;;21.02;18.20;;;17.00;99.90;;;;;;7325330;32;20820;-57
2023/05/09 06:28:40;;;;;;;22.92;18.20;;;17.10;99.90;;;;;;7325303;32;20388;-57
2023/05/09 06:32:42;;;;;;;20.05;17.67;;;17.20;99.90;;;;;;7328523;32;20103;-57
2023/05/09 06:36:43;;;;;;;20.85;16.80;;;17.60;99.90;;;;;;7325890;32;20107;-57
2023/05/09 06:40:45;;;;;;;20.55;18.20;;;17.90;99.90;;;;;;7327506;32;20572;-56
2023/05/09 06:44:47;;;;;;;19.90;15.93;;;18.00;99.90;;;;;;7335469;32;20254;-58
2023/05/09 06:48:49;;;;;;;17.27;15.48;;;18.10;99.90;;;;;;7328147;32;20129;-57
2023/05/09 06:52:50;;;;;;;19.55;16.30;;;18.30;99.90;;;;;;7328761;32;20111;-57
2023/05/09 06:56:52;;;;;;;16.52;14.73;;;18.10;99.90;;;;;;7323134;32;20383;-57
2023/05/09 07:00:54;;;;;;;17.23;15.43;;;18.10;99.90;;;;;;7326874;32;20786;-57
2023/05/09 07:04:56;;;;;;;16.98;14.98;;;18.00;99.90;;;;;;7326719;32;20524;-57
2023/05/09 07:08:58;;;;;;;18.42;16.20;;;17.90;99.90;;;;;;7334455;32;20709;-57
2023/05/09 07:13:00;;;;;;;16.12;14.18;;;17.80;99.90;;;;;;7325027;32;20643;-56
2023/05/09 07:17:01;;;;;;;18.30;16.10;;;17.90;99.90;;;;;;7326895;32;20127;-56
2023/05/09 07:21:23;;;;;;;19.83;15.85;;;17.90;99.90;;;;;;7330444;32;20423;-57
2023/05/09 07:25:24;;;;;;;15.65;13.07;;;18.10;99.90;;;;;;7327754;32;20190;-57
2023/05/09 07:29:26;;;;;;;13.68;12.37;;;18.40;99.90;;;;;;7335801;32;20139;-57
2023/05/09 07:33:28;;;;;;;14.50;11.43;;;18.70;99.90;;;;;;7323180;32;20468;-57
2023/05/09 07:37:30;;;;;;;15.77;11.90;;;18.60;99.90;;;;;;7325980;32;20209;-57
2023/05/09 07:41:32;;;;;;;12.40;11.10;;;18.60;99.90;;;;;;7324340;32;20137;-57
2023/05/09 07:45:35;;;;;;;13.23;11.27;;;18.60;99.90;;;;;;7324551;32;20248;-56
2023/05/09 07:49:37;;;;;;;14.23;11.98;;;18.50;99.90;;;;;;7322348;32;20100;-57
2023/05/09 07:53:38;;;;;;;15.55;13.18;;;18.50;99.90;;;;;;7323651;32;20128;-57
2023/05/09 07:57:40;;;;;;;13.73;11.12;;;18.30;99.90;;;;;;7325367;32;20349;-57
2023/05/09 08:01:42;;;;;;;11.90;10.75;;;18.50;99.90;;;;;;7328786;32;20190;-57
2023/05/09 08:05:43;;;;;;;11.27;10.13;;;18.90;99.90;;;;;;7325668;32;20123;-59
2023/05/09 08:09:45;;;;;;;13.43;11.55;;;19.10;99.90;;;;;;7327983;32;20184;-59
2023/05/09 08:13:47;;;;;;;11.73;10.52;;;19.10;99.90;;;;;;7331599;32;20103;-61
2023/05/09 08:17:48;;;;;;;13.80;10.57;;;19.10;99.90;;;;;;7330836;32;20125;-58
2023/05/09 08:21:54;;;;;;;12.23;10.82;;;19.50;99.90;;;;;;7335736;32;20624;-58
2023/05/09 08:25:57;;;;;;;11.52;10.43;;;19.60;99.90;;;;;;7332801;32;20112;-61
2023/05/09 08:29:59;;;;;;;10.43;9.43;;;19.70;99.90;;;;;;7325558;32;20205;-59
2023/05/09 08:34:01;;;;;;;8.60;7.62;;;19.90;99.90;;;;;;7332245;32;20139;-59
2023/05/09 08:38:03;;;;;;;9.80;7.40;;;20.20;99.90;;;;;;7324270;32;20226;-60
2023/05/09 08:42:06;;;;;;;8.15;7.15;;;20.60;99.90;;;;;;7322794;32;20434;-58
2023/05/09 08:46:09;;;;;;;9.45;8.55;;;21.00;99.90;;;;;;7327235;32;20336;-57
2023/05/09 08:50:13;;;;;;;7.82;6.97;;;21.00;99.90;;;;;;7328673;32;20110;-57
2023/05/09 08:54:17;;;;;;;7.78;6.25;;;20.80;99.90;;;;;;7324377;32;20553;-57
2023/05/09 08:58:21;;;;;;;8.40;6.60;;;20.70;99.90;;;;;;7332131;32;20696;-58
2023/05/09 09:02:23;;;;;;;5.80;5.18;;;20.50;99.90;;;;;;7326052;32;20091;-57
2023/05/09 09:06:27;;;;;;;5.25;4.72;;;20.30;99.90;;;;;;7330686;32;20146;-57
2023/05/09 09:10:31;;;;;;;5.47;4.55;;;20.40;99.90;;;;;;7333949;32;20308;-57
2023/05/09 09:14:38;;;;;;;5.00;4.50;;;20.30;99.90;;;;;;7330181;32;20191;-57
2023/05/09 09:18:40;;;;;;;;;;;20.30;99.90;;;;;;7326734;32;20282;-57
2023/05/09 09:22:42;;;;;;;5.85;4.22;;;20.50;99.90;;;;;;7326470;32;20122;-57
2023/05/09 09:26:48;;;;;;;7.65;4.03;;;20.90;99.90;;;;;;7325176;32;20100;-58
2023/05/09 09:30:50;;;;;;;5.18;3.10;;;21.20;99.90;;;;;;7322404;32;20240;-57
2023/05/09 09:35:06;;;;;;;5.85;3.12;;;21.20;99.90;;;;;;7323577;32;20126;-58
2023/05/09 09:39:08;;;;;;;8.07;3.35;;;21.00;99.90;;;;;;7327145;32;20625;-57
2023/05/09 09:43:09;;;;;;;6.32;3.17;;;20.90;99.90;;;;;;7332562;32;20904;-57
2023/05/09 09:47:11;;;;;;;4.70;3.17;;;20.80;99.90;;;;;;7320469;32;20146;-57
2023/05/09 09:51:13;;;;;;;4.03;3.05;;;20.90;99.90;;;;;;7320608;32;20099;-57
2023/05/09 09:55:15;;;;;;;3.83;3.00;;;20.70;99.90;;;;;;7322648;32;20126;-57
2023/05/09 09:59:19;;;;;;;5.87;3.30;;;20.70;99.90;;;;;;7330495;32;20115;-57
2023/05/09 10:03:21;;;;;;;5.20;3.70;;;20.90;99.90;;;;;;7328720;32;21414;-57
2023/05/09 10:07:23;;;;;;;4.62;3.10;;;20.60;99.90;;;;;;7331318;32;20114;-57
2023/05/09 10:11:25;;;;;;;5.32;3.40;;;20.60;99.90;;;;;;7332362;32;20099;-57
2023/05/09 10:15:30;;;;;;;10.88;3.60;;;20.80;99.90;;;;;;7332359;32;20150;-58
2023/05/09 10:19:48;;;;;;;3.72;2.85;;;20.90;99.90;;;;;;7330664;32;20407;-58
2023/05/09 10:23:51;;;;;;;3.80;2.60;;;21.00;99.90;;;;;;7334359;32;20138;-57
2023/05/09 10:27:59;;;;;;;4.12;3.08;;;20.90;99.90;;;;;;7334931;32;20770;-57
2023/05/09 10:32:08;;;;;;;7.07;2.58;;;20.80;99.90;;;;;;7327966;32;20194;-57
2023/05/09 10:36:11;;;;;;;5.55;3.15;;;20.80;99.90;;;;;;7331207;32;20191;-57
2023/05/09 10:40:14;;;;;;;4.70;2.50;;;20.90;99.90;;;;;;7331961;32;20574;-57
2023/05/09 10:44:16;;;;;;;4.07;2.67;;;21.00;99.90;;;;;;7330240;32;20202;-57
2023/05/09 10:48:18;;;;;;;3.35;2.35;;;21.10;99.90;;;;;;7330794;32;20128;-58
2023/05/09 10:52:21;;;;;;;5.75;2.05;;;21.10;99.90;;;;;;7331206;32;20126;-57
2023/05/09 10:56:31;;;;;;;4.03;2.45;;;21.10;99.90;;;;;;7327756;32;20266;-64
2023/05/09 11:00:39;;;;;;;2.83;2.15;;;21.20;99.90;;;;;;7330881;32;20125;-64
2023/05/09 11:04:42;;;;;;;3.22;1.58;;;21.20;99.90;;;;;;7331049;32;20252;-64
2023/05/09 11:08:44;;;;;;;4.97;2.12;;;21.40;99.90;;;;;;7331117;32;20108;-63
2023/05/09 11:12:54;;;;;;;3.05;2.03;;;21.50;99.90;;;;;;7331056;32;20166;-64
2023/05/09 11:17:03;;;;;;;3.95;1.83;;;21.50;99.90;;;;;;7327788;32;20206;-62
2023/05/09 11:21:08;;;;;;;4.45;2.00;;;21.30;99.90;;;;;;7334030;32;20329;-64
2023/05/09 11:25:11;;;;;;;3.08;1.92;;;21.40;99.90;;;;;;7327025;32;20123;-63
2023/05/09 11:29:14;;;;;;;3.42;1.85;;;21.90;99.90;;;;;;7329263;32;20190;-63
2023/05/09 11:33:26;;;;;;;4.18;1.85;;;22.20;99.90;;;;;;7332660;32;20182;-62
2023/05/09 11:37:30;;;;;;;2.53;1.70;;;22.50;99.90;;;;;;7327489;32;20237;-57
2023/05/09 11:41:39;;;;;;;1.62;1.25;;;22.70;99.90;;;;;;7323096;32;20709;-54
2023/05/09 11:45:42;;;;;;;3.03;1.48;;;22.70;99.90;;;;;;7324403;32;20293;-54
2023/05/09 11:49:44;;;;;;;2.75;1.30;;;22.90;99.90;;;;;;7326671;32;20190;-53
2023/05/09 11:53:49;;;;;;;2.60;1.40;;;23.20;99.90;;;;;;7326590;32;20134;-53
2023/05/09 11:57:52;;;;;;;2.10;1.20;;;23.10;99.90;;;;;;7328659;32;20123;-53
2023/05/09 12:01:54;;;;;;;4.00;1.45;;;23.10;99.90;;;;;;7328502;32;20112;-53
2023/05/09 12:05:56;;;;;;;3.37;1.40;;;23.40;99.90;;;;;;7328872;32;20498;-54
2023/05/09 12:10:01;;;;;;;4.87;1.42;;;23.20;99.90;;;;;;7333182;32;20108;-54
2023/05/09 12:14:04;;;;;;;2.05;1.25;;;22.80;99.90;;;;;;7329182;32;20718;-53
2023/05/09 12:18:07;;;;;;;3.25;1.58;;;22.80;99.90;;;;;;7314258;32;20111;-54
2023/05/09 12:22:09;;;;;;;3.47;1.67;;;22.80;99.90;;;;;;7323776;32;20300;-55
2023/05/09 12:26:11;;;;;;;4.25;1.73;;;22.60;99.90;;;;;;7327811;32;20217;-54
2023/05/09 12:30:14;;;;;;;5.37;1.80;;;22.40;99.90;;;;;;7329138;32;20260;-53
2023/05/09 12:34:17;;;;;;;3.80;1.83;;;22.30;99.90;;;;;;7323980;32;20107;-54
2023/05/09 12:38:22;;;;;;;3.10;1.42;;;21.70;99.90;;;;;;7332170;32;20219;-54
2023/05/09 12:42:27;;;;;;;5.35;1.70;;;21.60;99.90;;;;;;7336648;32;22608;-53
2023/05/09 12:46:29;;;;;;;8.02;2.15;;;21.50;99.90;;;;;;7327741;32;20251;-53
2023/05/09 12:50:35;;;;;;;4.28;1.87;;;22.00;99.90;;;;;;7328352;32;20100;-53
2023/05/09 12:54:37;;;;;;;5.97;1.73;;;22.20;99.90;;;;;;7330948;32;20117;-58
2023/05/09 12:58:38;;;;;;;5.50;1.90;;;22.30;99.90;;;;;;7326362;32;20660;-58
2023/05/09 13:02:40;;;;;;;3.72;1.70;;;22.50;99.90;;;;;;7324156;32;20788;-58
2023/05/09 13:06:54;;;;;;;2.22;1.55;;;22.30;99.90;;;;;;7323124;32;20112;-57
2023/05/09 13:10:59;;;;;;;3.92;1.48;;;22.20;99.90;;;;;;7320996;32;20146;-57
2023/05/09 13:15:19;;;;;;;4.37;1.80;;;22.00;99.90;;;;;;7324646;32;20095;-58
2023/05/09 13:19:21;;;;;;;5.78;3.50;;;21.70;99.90;;;;;;7326465;32;20147;-58
2023/05/09 13:23:22;;;;;;;9.02;3.65;;;20.90;99.90;;;;;;7333168;32;20557;-62
2023/05/09 13:27:24;;;;;;;6.37;4.20;;;20.40;99.90;;;;;;7326565;32;20123;-62
2023/05/09 13:31:26;;;;;;;5.72;4.12;;;19.80;99.90;;;;;;7330528;32;20281;-63
2023/05/09 13:35:28;;;;;;;5.20;4.47;;;19.50;99.90;;;;;;7331806;32;20544;-62
2023/05/09 13:39:30;;;;;;;6.82;5.20;;;19.40;99.90;;;;;;7328616;32;20104;-62
2023/05/09 13:43:33;;;;;;;7.75;5.40;;;19.00;99.90;;;;;;7336038;32;20178;-62
2023/05/09 13:47:35;;;;;;;8.15;7.03;;;18.90;99.90;;;;;;7321502;32;20380;-62
2023/05/09 13:51:39;;;;;;;8.65;6.70;;;18.50;99.90;;;;;;7327692;32;20555;-62
2023/05/09 13:55:41;;;;;;;8.13;6.72;;;18.40;99.90;;;;;;7334864;32;20710;-62
2023/05/09 13:59:43;;;;;;;7.53;6.80;;;18.40;99.90;;;;;;7331778;32;20159;-63
2023/05/09 14:03:47;;;;;;;8.88;7.00;;;18.30;99.90;;;;;;7338257;32;20306;-62
2023/05/09 14:07:49;;;;;;;8.00;7.20;;;18.40;99.90;;;;;;7335295;32;20523;-62
2023/05/09 14:11:52;;;;;;;8.45;6.95;;;18.30;99.90;;;;;;7330890;32;20208;-58
2023/05/09 14:15:54;;;;;;;7.55;6.72;;;18.30;99.90;;;;;;7336184;32;20182;-58
2023/05/09 14:19:55;;;;;;;9.18;8.00;;;18.30;99.90;;;;;;7342619;32;20679;-58
2023/05/09 14:23:57;;;;;;;8.07;6.90;;;18.30;99.90;;;;;;7330189;32;20617;-58
2023/05/09 14:27:59;;;;;;;8.20;7.40;;;18.10;99.90;;;;;;7332303;32;20205;-58
2023/05/09 14:32:00;;;;;;;10.75;7.35;;;17.90;99.90;;;;;;7337057;32;20099;-58
2023/05/09 14:36:03;;;;;;;8.65;7.82;;;17.80;99.90;;;;;;7333021;32;20183;-58
2023/05/09 14:40:05;;;;;;;9.50;7.80;;;17.50;99.90;;;;;;7332463;32;20119;-58
2023/05/09 14:44:07;;;;;;;9.20;8.27;;;17.60;99.90;;;;;;7329860;32;20147;-58
2023/05/09 14:48:09;;;;;;;7.40;6.45;;;17.50;99.90;;;;;;7332522;32;20537;-57
2023/05/09 14:52:12;;;;;;;7.85;6.15;;;17.50;99.90;;;;;;7330120;32;20427;-57
2023/05/09 14:56:14;;;;;;;8.00;7.20;;;17.50;99.90;;;;;;7333152;32;20620;-57
2023/05/09 15:00:16;;;;;;;7.85;6.30;;;17.40;99.90;;;;;;7336042;32;20104;-58
2023/05/09 15:04:26;;;;;;;7.57;6.87;;;17.20;99.90;;;;;;7329069;32;20657;-57
2023/05/09 15:08:28;;;;;;;9.38;7.55;;;17.00;99.90;;;;;;7331324;32;20179;-57
2023/05/09 15:12:30;;;;;;;9.38;8.13;;;16.90;99.90;;;;;;7330361;32;20738;-57
2023/05/09 15:16:32;;;;;;;9.30;7.82;;;16.80;99.90;;;;;;7330946;32;20099;-57
2023/05/09 15:20:35;;;;;;;10.50;8.35;;;16.70;99.90;;;;;;7330972;32;20099;-56
2023/05/09 15:24:36;;;;;;;9.38;8.05;;;16.70;99.90;;;;;;7334915;32;20201;-57
2023/05/09 15:28:38;;;;;;;9.48;8.05;;;16.60;99.90;;;;;;7327619;32;20116;-57
2023/05/09 15:32:40;;;;;;;10.73;8.57;;;16.50;99.90;;;;;;7329421;32;20119;-57
2023/05/09 15:36:42;;;;;;;10.60;9.50;;;16.50;99.90;;;;;;7330415;32;20816;-57
2023/05/09 15:40:44;;;;;;;11.10;9.27;;;16.40;99.90;;;;;;7312407;32;20099;-58
2023/05/09 15:44:46;;;;;;;9.85;8.90;;;16.50;99.90;;;;;;7332138;32;20118;-57
2023/05/09 15:48:47;;;;;;;10.45;8.93;;;16.50;99.90;;;;;;7323698;32;20142;-57
2023/05/09 15:52:51;;;;;;;10.68;9.57;;;16.50;99.90;;;;;;7333393;32;20125;-58
2023/05/09 15:56:52;;;;;;;9.02;8.13;;;16.40;99.90;;;;;;7336341;32;20269;-58
2023/05/09 16:00:54;;;;;;;9.40;8.40;;;16.50;99.90;;;;;;7313909;32;20123;-58
2023/05/09 16:04:56;;;;;;;8.48;7.57;;;16.50;99.90;;;;;;7329161;32;20153;-58
2023/05/09 16:08:58;;;;;;;6.97;6.00;;;16.50;99.90;;;;;;7333250;32;20130;-59
2023/05/09 16:12:59;;;;;;;7.55;6.37;;;16.30;99.90;;;;;;7328471;32;20789;-58
2023/05/09 16:17:01;;;;;;;8.10;7.30;;;16.30;99.90;;;;;;7334629;32;20118;-57
2023/05/09 16:21:06;;;;;;;10.93;6.70;;;16.30;99.90;;;;;;7336863;32;21070;-58
2023/05/09 16:25:09;;;;;;;6.40;5.85;;;16.30;99.90;;;;;;7328672;32;20130;-58
2023/05/09 16:29:11;;;;;;;7.95;5.18;;;16.20;99.90;;;;;;7327221;32;20516;-59
2023/05/09 16:33:13;;;;;;;6.90;5.12;;;16.00;99.90;;;;;;7332019;32;20191;-57
2023/05/09 16:37:17;;;;;;;5.97;4.43;;;15.90;99.90;;;;;;7329998;32;20130;-59
2023/05/09 16:41:19;;;;;;;7.18;4.90;;;15.90;99.90;;;;;;7325554;32;20169;-58
2023/05/09 16:45:21;;;;;;;6.75;5.07;;;15.90;99.90;;;;;;7329011;32;20501;-58
2023/05/09 16:49:22;;;;;;;6.30;5.70;;;15.80;99.90;;;;;;7323471;32;20191;-56
2023/05/09 16:53:24;;;;;;;9.38;6.82;;;15.80;99.90;;;;;;7324464;32;20104;-58
2023/05/09 16:57:28;;;;;;;6.65;5.03;;;15.70;99.90;;;;;;7325573;32;20577;-58
2023/05/09 17:01:30;;;;;;;5.45;4.60;;;15.50;99.90;;;;;;7324193;32;20119;-58
2023/05/09 17:05:32;;;;;;;4.30;3.70;;;15.50;99.90;;;;;;7331700;32;20166;-57
2023/05/09 17:09:34;;;;;;;4.40;3.50;;;15.40;99.90;;;;;;7329032;32;20199;-58
2023/05/09 17:13:35;;;;;;;5.65;3.37;;;15.20;99.90;;;;;;7341591;32;20284;-58
2023/05/09 17:17:37;;;;;;;4.62;3.90;;;15.20;99.90;;;;;;7339861;32;20099;-58
2023/05/09 17:21:40;;;;;;;3.72;3.33;;;15.00;99.90;;;;;;7331472;32;20763;-56
2023/05/09 17:25:42;;;;;;;5.78;3.10;;;15.00;99.90;;;;;;7334773;32;20114;-57
2023/05/09 17:29:44;;;;;;;3.35;2.67;;;14.90;99.90;;;;;;7337975;32;20125;-56
2023/05/09 17:33:45;;;;;;;5.35;2.97;;;14.90;99.90;;;;;;7330510;32;20149;-58
2023/05/09 17:37:47;;;;;;;5.60;3.15;;;14.80;99.90;;;;;;7339482;32;20111;-59
2023/05/09 17:41:49;;;;;;;4.72;2.95;;;14.80;99.90;;;;;;7332637;32;20974;-59
2023/05/09 17:45:51;;;;;;;5.28;2.70;;;14.70;99.90;;;;;;7328625;32;20124;-59
2023/05/09 17:49:53;;;;;;;6.47;2.58;;;14.60;99.90;;;;;;7318338;32;21100;-58
2023/05/09 17:53:54;;;;;;;5.43;2.15;;;14.50;99.90;;;;;;7335169;32;20644;-59
2023/05/09 17:57:56;;;;;;;3.05;2.42;;;14.50;99.90;;;;;;7337240;32;20133;-59
2023/05/09 18:01:58;;;;;;;3.78;2.55;;;14.40;99.90;;;;;;7335296;32;20182;-60
2023/05/09 18:06:00;;;;;;;5.12;2.35;;;14.40;99.90;;;;;;7335746;32;20207;-59
2023/05/09 18:10:02;;;;;;;3.90;1.95;;;14.30;99.90;;;;;;7336105;32;20215;-59
2023/05/09 18:14:04;;;;;;;3.00;2.50;;;14.30;99.90;;;;;;7337081;32;20141;-59
2023/05/09 18:18:06;;;;;;;4.62;2.45;;;14.30;99.90;;;;;;7328457;32;20143;-59
2023/05/09 18:22:08;;;;;;;4.57;1.98;;;14.30;99.90;;;;;;7311009;32;20107;-58
2023/05/09 18:26:10;;;;;;;3.25;1.60;;;14.20;99.90;;;;;;7328820;32;20844;-59
2023/05/09 18:30:12;;;;;;;2.95;1.40;;;14.20;99.90;;;;;;7323033;32;20806;-58
2023/05/09 18:34:14;;;;;;;2.72;1.60;;;14.20;99.90;;;;;;7327655;32;20278;-59
2023/05/09 18:38:16;;;;;;;2.37;1.42;;;14.20;99.90;;;;;;7332568;32;20248;-59
2023/05/09 18:42:18;;;;;;;3.22;1.90;;;14.20;99.90;;;;;;7328774;32;20281;-59
2023/05/09 18:46:20;;;;;;;2.70;1.80;;;14.20;99.90;;;;;;7339555;32;20123;-58
2023/05/09 18:50:22;;;;;;;2.33;1.80;;;14.20;99.90;;;;;;7326327;32;20203;-58
2023/05/09 18:54:23;;;;;;;2.50;1.73;;;14.10;99.90;;;;;;7324210;32;20601;-59
2023/05/09 18:58:25;;;;;;;3.00;1.73;;;14.10;99.90;;;;;;7335859;32;20206;-58
2023/05/09 19:02:28;;;;;;;7.12;2.00;;;14.00;99.90;;;;;;7326820;32;20218;-58
2023/05/09 19:06:31;;;;;;;5.43;2.10;;;14.00;99.90;;;;;;7332244;32;20351;-57
2023/05/09 19:10:34;;;;;;;3.97;2.10;;;14.00;99.90;;;;;;7333096;32;20309;-57
2023/05/09 19:14:36;;;;;;;3.00;1.80;;;14.00;99.90;;;;;;7325606;32;20126;-58
2023/05/09 19:18:38;;;;;;;3.65;2.10;;;14.00;99.90;;;;;;7324408;32;20174;-56
2023/05/09 19:22:44;;;;;;;4.68;2.12;;;13.90;99.90;;;;;;7330559;32;20670;-56
2023/05/09 19:26:46;;;;;;;3.15;2.20;;;13.90;99.90;;;;;;7333895;32;20233;-57
2023/05/09 19:30:48;;;;;;;6.50;2.50;;;13.90;99.90;;;;;;7325676;32;20191;-57
2023/05/09 19:34:50;;;;;;;6.37;2.53;;;13.90;99.90;;;;;;7332643;32;20108;-56
2023/05/09 19:38:52;;;;;;;3.28;2.58;;;13.90;99.90;;;;;;7339178;32;20258;-57
2023/05/09 19:42:54;;;;;;;3.42;2.17;;;13.90;99.90;;;;;;7325487;32;20226;-56
2023/05/09 19:46:57;;;;;;;2.55;1.98;;;13.90;99.90;;;;;;7327322;32;20115;-57
2023/05/09 19:50:59;;;;;;;2.12;1.80;;;14.00;99.90;;;;;;7332371;32;20243;-57
2023/05/09 19:55:00;;;;;;;2.65;1.90;;;14.00;99.90;;;;;;7332679;32;20129;-56
2023/05/09 19:59:03;;;;;;;5.32;2.20;;;14.00;99.90;;;;;;7333452;32;20133;-56
2023/05/09 20:03:05;;;;;;;5.47;2.17;;;14.10;99.90;;;;;;7336448;32;20254;-57
2023/05/09 20:07:07;;;;;;;1.55;1.20;;;14.10;99.90;;;;;;7330811;32;20230;-57
2023/05/09 20:11:08;;;;;;;2.03;0.70;;;14.00;99.90;;;;;;7330220;32;20137;-57
2023/05/09 20:15:10;;;;;;;2.40;0.90;;;13.80;99.90;;;;;;7330661;32;20246;-56
2023/05/09 20:19:13;;;;;;;2.78;0.80;;;13.70;99.90;;;;;;7328706;32;20766;-56
2023/05/09 20:23:15;;;;;;;2.42;1.00;;;13.60;99.90;;;;;;7319933;32;20182;-56
2023/05/09 20:27:16;;;;;;;1.98;1.27;;;13.50;99.90;;;;;;7327472;32;20165;-57
2023/05/09 20:31:18;;;;;;;2.47;1.58;;;13.50;99.90;;;;;;7323118;32;20107;-56
2023/05/09 20:35:20;;;;;;;3.50;2.12;;;13.50;99.90;;;;;;7333823;32;20171;-56
2023/05/09 20:39:23;;;;;;;5.43;1.90;;;13.40;99.90;;;;;;7332826;32;20147;-56
2023/05/09 20:43:24;;;;;;;3.87;2.08;;;13.40;99.90;;;;;;7328401;32;20583;-54
2023/05/09 20:47:26;;;;;;;4.05;1.92;;;13.40;99.90;;;;;;7327636;32;20112;-57
2023/05/09 20:51:30;;;;;;;2.40;2.00;;;13.40;99.90;;;;;;7326455;32;20624;-57